sensor_id;sensor_type;location;lat;lon;timestamp;P1;durP1;ratioP1;P2;durP2;ratioP2
6426;SDS011;3246;42.664;23.308;2023-01-29T00:01:33;16.57;;;10.10;;
6426;SDS011;3246;42.664;23.308;2023-01-29T00:04:00;12.13;;;9.43;;
6426;SDS011;3246;42.664;23.308;2023-01-29T00:06:27;9.67;;;7.10;;
6426;SDS011;3246;42.664;23.308;2023-01-29T00:08:54;10.73;;;8.77;;
6426;SDS011;3246;42.664;23.308;2023-01-29T00:11:20;12.37;;;8.13;;
6426;SDS011;3246;42.664;23.308;2023-01-29T00:13:48;13.77;;;9.23;;
6426;SDS011;3246;42.664;23.308;2023-01-29T00:16:14;13.13;;;9.47;;
6426;SDS011;3246;42.664;23.308;2023-01-29T00:18:41;17.77;;;9.60;;
6426;SDS011;3246;42.664;23.308;2023-01-29T00:21:09;16.40;;;10.03;;
6426;SDS011;3246;42.664;23.308;2023-01-29T00:23:36;11.83;;;8.80;;
6426;SDS011;3246;42.664;23.308;2023-01-29T00:26:02;9.23;;;7.47;;
6426;SDS011;3246;42.664;23.308;2023-01-29T00:28:29;14.53;;;8.73;;
6426;SDS011;3246;42.664;23.308;2023-01-29T00:30:55;10.37;;;8.17;;
6426;SDS011;3246;42.664;23.308;2023-01-29T00:33:22;14.97;;;8.80;;
6426;SDS011;3246;42.664;23.308;2023-01-29T00:35:48;12.47;;;9.33;;
6426;SDS011;3246;42.664;23.308;2023-01-29T00:38:16;15.20;;;10.07;;
6426;SDS011;3246;42.664;23.308;2023-01-29T00:40:43;16.53;;;9.37;;
6426;SDS011;3246;42.664;23.308;2023-01-29T00:43:26;12.10;;;9.83;;
6426;SDS011;3246;42.664;23.308;2023-01-29T00:46:10;13.17;;;9.33;;
6426;SDS011;3246;42.664;23.308;2023-01-29T00:48:37;14.77;;;8.80;;
6426;SDS011;3246;42.664;23.308;2023-01-29T00:51:03;11.47;;;8.37;;
6426;SDS011;3246;42.664;23.308;2023-01-29T00:53:31;9.50;;;6.80;;
6426;SDS011;3246;42.664;23.308;2023-01-29T00:55:58;13.07;;;9.13;;
6426;SDS011;3246;42.664;23.308;2023-01-29T00:58:24;13.10;;;7.50;;
6426;SDS011;3246;42.664;23.308;2023-01-29T01:00:53;13.17;;;7.63;;
6426;SDS011;3246;42.664;23.308;2023-01-29T01:03:19;12.00;;;9.03;;
6426;SDS011;3246;42.664;23.308;2023-01-29T01:05:45;9.30;;;8.30;;
6426;SDS011;3246;42.664;23.308;2023-01-29T01:08:12;13.73;;;8.60;;
6426;SDS011;3246;42.664;23.308;2023-01-29T01:11:01;7.83;;;7.07;;
6426;SDS011;3246;42.664;23.308;2023-01-29T01:13:28;7.43;;;5.63;;
6426;SDS011;3246;42.664;23.308;2023-01-29T01:15:55;12.27;;;8.60;;
6426;SDS011;3246;42.664;23.308;2023-01-29T01:18:21;11.20;;;7.50;;
6426;SDS011;3246;42.664;23.308;2023-01-29T01:20:48;11.27;;;8.90;;
6426;SDS011;3246;42.664;23.308;2023-01-29T01:23:16;11.17;;;8.27;;
6426;SDS011;3246;42.664;23.308;2023-01-29T01:25:42;12.77;;;8.57;;
6426;SDS011;3246;42.664;23.308;2023-01-29T01:28:10;13.77;;;8.37;;
6426;SDS011;3246;42.664;23.308;2023-01-29T01:30:37;9.60;;;8.10;;
6426;SDS011;3246;42.664;23.308;2023-01-29T01:33:03;7.47;;;6.27;;
6426;SDS011;3246;42.664;23.308;2023-01-29T01:35:30;9.33;;;6.97;;
6426;SDS011;3246;42.664;23.308;2023-01-29T01:37:56;8.03;;;6.03;;
6426;SDS011;3246;42.664;23.308;2023-01-29T01:40:23;11.93;;;8.63;;
6426;SDS011;3246;42.664;23.308;2023-01-29T01:42:50;8.30;;;7.07;;
6426;SDS011;3246;42.664;23.308;2023-01-29T01:45:19;12.77;;;8.60;;
6426;SDS011;3246;42.664;23.308;2023-01-29T01:47:47;10.10;;;7.00;;
6426;SDS011;3246;42.664;23.308;2023-01-29T01:50:14;7.07;;;5.93;;
6426;SDS011;3246;42.664;23.308;2023-01-29T01:52:42;11.53;;;8.70;;
6426;SDS011;3246;42.664;23.308;2023-01-29T01:55:11;9.57;;;7.40;;
6426;SDS011;3246;42.664;23.308;2023-01-29T01:57:38;10.33;;;6.07;;
6426;SDS011;3246;42.664;23.308;2023-01-29T02:00:06;7.97;;;6.60;;
6426;SDS011;3246;42.664;23.308;2023-01-29T02:02:37;7.63;;;5.83;;
6426;SDS011;3246;42.664;23.308;2023-01-29T02:05:21;10.67;;;8.67;;
6426;SDS011;3246;42.664;23.308;2023-01-29T02:08:05;5.83;;;5.33;;
6426;SDS011;3246;42.664;23.308;2023-01-29T02:10:49;9.60;;;8.10;;
6426;SDS011;3246;42.664;23.308;2023-01-29T02:13:16;12.83;;;8.87;;
6426;SDS011;3246;42.664;23.308;2023-01-29T02:15:43;6.77;;;6.07;;
6426;SDS011;3246;42.664;23.308;2023-01-29T02:18:12;11.93;;;7.00;;
6426;SDS011;3246;42.664;23.308;2023-01-29T02:20:40;12.60;;;9.20;;
6426;SDS011;3246;42.664;23.308;2023-01-29T02:23:12;11.57;;;9.40;;
6426;SDS011;3246;42.664;23.308;2023-01-29T02:26:03;9.93;;;7.97;;
6426;SDS011;3246;42.664;23.308;2023-01-29T02:28:39;9.83;;;7.77;;
6426;SDS011;3246;42.664;23.308;2023-01-29T02:31:15;11.27;;;8.67;;
6426;SDS011;3246;42.664;23.308;2023-01-29T02:33:45;9.50;;;8.27;;
6426;SDS011;3246;42.664;23.308;2023-01-29T02:36:16;10.00;;;6.70;;
6426;SDS011;3246;42.664;23.308;2023-01-29T02:38:46;6.07;;;4.77;;
6426;SDS011;3246;42.664;23.308;2023-01-29T02:41:19;12.53;;;7.93;;
6426;SDS011;3246;42.664;23.308;2023-01-29T02:43:50;12.00;;;8.93;;
6426;SDS011;3246;42.664;23.308;2023-01-29T02:46:20;10.90;;;8.80;;
6426;SDS011;3246;42.664;23.308;2023-01-29T02:48:51;9.83;;;7.87;;
6426;SDS011;3246;42.664;23.308;2023-01-29T02:51:20;15.20;;;9.50;;
6426;SDS011;3246;42.664;23.308;2023-01-29T02:53:50;12.97;;;8.17;;
6426;SDS011;3246;42.664;23.308;2023-01-29T02:56:20;7.80;;;7.03;;
6426;SDS011;3246;42.664;23.308;2023-01-29T02:58:50;6.97;;;6.27;;
6426;SDS011;3246;42.664;23.308;2023-01-29T03:01:18;8.70;;;7.47;;
6426;SDS011;3246;42.664;23.308;2023-01-29T03:03:46;7.77;;;6.97;;
6426;SDS011;3246;42.664;23.308;2023-01-29T03:06:16;8.87;;;6.67;;
6426;SDS011;3246;42.664;23.308;2023-01-29T03:08:46;7.87;;;6.53;;
6426;SDS011;3246;42.664;23.308;2023-01-29T03:11:16;7.93;;;7.13;;
6426;SDS011;3246;42.664;23.308;2023-01-29T03:13:44;8.30;;;6.97;;
6426;SDS011;3246;42.664;23.308;2023-01-29T03:16:17;8.10;;;6.63;;
6426;SDS011;3246;42.664;23.308;2023-01-29T03:18:46;15.07;;;9.53;;
6426;SDS011;3246;42.664;23.308;2023-01-29T03:21:16;11.00;;;8.33;;
6426;SDS011;3246;42.664;23.308;2023-01-29T03:24:00;13.00;;;7.43;;
6426;SDS011;3246;42.664;23.308;2023-01-29T03:26:46;8.20;;;6.87;;
6426;SDS011;3246;42.664;23.308;2023-01-29T03:29:30;8.37;;;7.27;;
6426;SDS011;3246;42.664;23.308;2023-01-29T03:32:16;10.00;;;7.73;;
6426;SDS011;3246;42.664;23.308;2023-01-29T03:34:45;8.30;;;7.47;;
6426;SDS011;3246;42.664;23.308;2023-01-29T03:37:13;7.50;;;5.97;;
6426;SDS011;3246;42.664;23.308;2023-01-29T03:39:42;10.03;;;5.97;;
6426;SDS011;3246;42.664;23.308;2023-01-29T03:42:11;10.20;;;8.43;;
6426;SDS011;3246;42.664;23.308;2023-01-29T03:44:52;6.90;;;5.67;;
6426;SDS011;3246;42.664;23.308;2023-01-29T03:47:21;7.80;;;6.10;;
6426;SDS011;3246;42.664;23.308;2023-01-29T03:49:53;7.43;;;6.63;;
6426;SDS011;3246;42.664;23.308;2023-01-29T03:52:22;7.63;;;5.40;;
6426;SDS011;3246;42.664;23.308;2023-01-29T03:54:53;5.63;;;3.97;;
6426;SDS011;3246;42.664;23.308;2023-01-29T03:57:24;8.10;;;5.47;;
6426;SDS011;3246;42.664;23.308;2023-01-29T03:59:54;8.47;;;5.90;;
6426;SDS011;3246;42.664;23.308;2023-01-29T04:02:29;6.30;;;5.03;;
6426;SDS011;3246;42.664;23.308;2023-01-29T04:04:57;6.53;;;5.53;;
6426;SDS011;3246;42.664;23.308;2023-01-29T04:07:24;6.60;;;5.93;;
6426;SDS011;3246;42.664;23.308;2023-01-29T04:09:53;6.20;;;5.60;;
6426;SDS011;3246;42.664;23.308;2023-01-29T04:12:22;6.80;;;6.17;;
6426;SDS011;3246;42.664;23.308;2023-01-29T04:14:50;6.70;;;6.00;;
6426;SDS011;3246;42.664;23.308;2023-01-29T04:17:19;6.80;;;6.07;;
6426;SDS011;3246;42.664;23.308;2023-01-29T04:19:48;6.53;;;5.03;;
6426;SDS011;3246;42.664;23.308;2023-01-29T04:22:16;7.27;;;5.53;;
6426;SDS011;3246;42.664;23.308;2023-01-29T04:24:44;9.33;;;7.07;;
6426;SDS011;3246;42.664;23.308;2023-01-29T04:27:15;6.83;;;5.33;;
6426;SDS011;3246;42.664;23.308;2023-01-29T04:29:51;6.90;;;5.93;;
6426;SDS011;3246;42.664;23.308;2023-01-29T04:32:22;7.33;;;6.23;;
6426;SDS011;3246;42.664;23.308;2023-01-29T04:34:54;8.50;;;6.33;;
6426;SDS011;3246;42.664;23.308;2023-01-29T04:37:28;9.20;;;6.20;;
6426;SDS011;3246;42.664;23.308;2023-01-29T04:39:56;6.43;;;5.87;;
6426;SDS011;3246;42.664;23.308;2023-01-29T04:42:26;7.90;;;5.80;;
6426;SDS011;3246;42.664;23.308;2023-01-29T04:44:57;6.23;;;5.50;;
6426;SDS011;3246;42.664;23.308;2023-01-29T04:47:26;5.30;;;4.80;;
6426;SDS011;3246;42.664;23.308;2023-01-29T04:49:58;7.43;;;6.70;;
6426;SDS011;3246;42.664;23.308;2023-01-29T04:52:30;10.13;;;6.83;;
6426;SDS011;3246;42.664;23.308;2023-01-29T04:55:00;6.50;;;5.87;;
6426;SDS011;3246;42.664;23.308;2023-01-29T04:57:30;9.67;;;7.13;;
6426;SDS011;3246;42.664;23.308;2023-01-29T05:00:00;7.43;;;6.37;;
6426;SDS011;3246;42.664;23.308;2023-01-29T05:02:28;8.13;;;7.10;;
6426;SDS011;3246;42.664;23.308;2023-01-29T05:04:57;7.23;;;6.53;;
6426;SDS011;3246;42.664;23.308;2023-01-29T05:07:24;5.43;;;4.93;;
6426;SDS011;3246;42.664;23.308;2023-01-29T05:09:51;5.07;;;4.37;;
6426;SDS011;3246;42.664;23.308;2023-01-29T05:12:18;5.47;;;4.80;;
6426;SDS011;3246;42.664;23.308;2023-01-29T05:14:45;5.43;;;4.80;;
6426;SDS011;3246;42.664;23.308;2023-01-29T05:17:13;6.00;;;5.40;;
6426;SDS011;3246;42.664;23.308;2023-01-29T05:19:41;6.70;;;6.00;;
6426;SDS011;3246;42.664;23.308;2023-01-29T05:22:09;8.53;;;5.53;;
6426;SDS011;3246;42.664;23.308;2023-01-29T05:24:36;6.40;;;5.80;;
6426;SDS011;3246;42.664;23.308;2023-01-29T05:27:03;7.43;;;6.10;;
6426;SDS011;3246;42.664;23.308;2023-01-29T05:29:46;7.67;;;6.30;;
6426;SDS011;3246;42.664;23.308;2023-01-29T05:32:13;7.03;;;6.33;;
6426;SDS011;3246;42.664;23.308;2023-01-29T05:34:40;6.93;;;5.60;;
6426;SDS011;3246;42.664;23.308;2023-01-29T05:37:09;6.10;;;4.90;;
6426;SDS011;3246;42.664;23.308;2023-01-29T05:39:35;6.57;;;5.97;;
6426;SDS011;3246;42.664;23.308;2023-01-29T05:42:02;5.40;;;4.83;;
6426;SDS011;3246;42.664;23.308;2023-01-29T05:44:28;6.43;;;5.77;;
6426;SDS011;3246;42.664;23.308;2023-01-29T05:46:55;8.37;;;5.33;;
6426;SDS011;3246;42.664;23.308;2023-01-29T05:49:21;5.47;;;4.83;;
6426;SDS011;3246;42.664;23.308;2023-01-29T05:51:48;5.53;;;4.63;;
6426;SDS011;3246;42.664;23.308;2023-01-29T05:54:15;7.17;;;6.20;;
6426;SDS011;3246;42.664;23.308;2023-01-29T05:56:42;6.00;;;4.97;;
6426;SDS011;3246;42.664;23.308;2023-01-29T05:59:08;5.80;;;4.93;;
6426;SDS011;3246;42.664;23.308;2023-01-29T06:01:35;5.70;;;5.03;;
6426;SDS011;3246;42.664;23.308;2023-01-29T06:04:01;7.33;;;5.97;;
6426;SDS011;3246;42.664;23.308;2023-01-29T06:06:28;8.77;;;6.00;;
6426;SDS011;3246;42.664;23.308;2023-01-29T06:08:54;7.40;;;6.27;;
6426;SDS011;3246;42.664;23.308;2023-01-29T06:11:22;9.77;;;7.23;;
6426;SDS011;3246;42.664;23.308;2023-01-29T06:13:49;8.83;;;7.93;;
6426;SDS011;3246;42.664;23.308;2023-01-29T06:16:15;8.00;;;7.20;;
6426;SDS011;3246;42.664;23.308;2023-01-29T06:18:42;7.20;;;5.87;;
6426;SDS011;3246;42.664;23.308;2023-01-29T06:21:09;8.20;;;6.90;;
6426;SDS011;3246;42.664;23.308;2023-01-29T06:23:35;8.70;;;7.77;;
6426;SDS011;3246;42.664;23.308;2023-01-29T06:26:03;8.67;;;7.80;;
6426;SDS011;3246;42.664;23.308;2023-01-29T06:28:31;10.67;;;8.97;;
6426;SDS011;3246;42.664;23.308;2023-01-29T06:30:58;11.87;;;8.90;;
6426;SDS011;3246;42.664;23.308;2023-01-29T06:33:25;12.57;;;9.87;;
6426;SDS011;3246;42.664;23.308;2023-01-29T06:35:55;12.10;;;9.63;;
6426;SDS011;3246;42.664;23.308;2023-01-29T06:38:22;10.53;;;7.23;;
6426;SDS011;3246;42.664;23.308;2023-01-29T06:40:49;10.87;;;7.93;;
6426;SDS011;3246;42.664;23.308;2023-01-29T06:43:15;12.50;;;9.67;;
6426;SDS011;3246;42.664;23.308;2023-01-29T06:45:46;11.97;;;10.17;;
6426;SDS011;3246;42.664;23.308;2023-01-29T06:48:13;17.13;;;11.23;;
6426;SDS011;3246;42.664;23.308;2023-01-29T06:50:39;10.77;;;9.17;;
6426;SDS011;3246;42.664;23.308;2023-01-29T06:53:06;14.17;;;10.10;;
6426;SDS011;3246;42.664;23.308;2023-01-29T06:55:32;12.70;;;8.57;;
6426;SDS011;3246;42.664;23.308;2023-01-29T06:57:59;11.33;;;9.13;;
6426;SDS011;3246;42.664;23.308;2023-01-29T07:00:25;13.53;;;8.20;;
6426;SDS011;3246;42.664;23.308;2023-01-29T07:02:53;11.83;;;7.93;;
6426;SDS011;3246;42.664;23.308;2023-01-29T07:05:19;11.13;;;8.40;;
6426;SDS011;3246;42.664;23.308;2023-01-29T07:07:46;9.47;;;8.53;;
6426;SDS011;3246;42.664;23.308;2023-01-29T07:10:12;39.77;;;21.13;;
6426;SDS011;3246;42.664;23.308;2023-01-29T07:12:39;11.73;;;7.93;;
6426;SDS011;3246;42.664;23.308;2023-01-29T07:15:06;11.47;;;8.30;;
6426;SDS011;3246;42.664;23.308;2023-01-29T07:17:32;12.20;;;8.73;;
6426;SDS011;3246;42.664;23.308;2023-01-29T07:20:00;12.37;;;9.13;;
6426;SDS011;3246;42.664;23.308;2023-01-29T07:22:26;11.50;;;9.83;;
6426;SDS011;3246;42.664;23.308;2023-01-29T07:24:53;14.73;;;10.27;;
6426;SDS011;3246;42.664;23.308;2023-01-29T07:27:19;39.47;;;22.70;;
6426;SDS011;3246;42.664;23.308;2023-01-29T07:29:46;17.13;;;13.13;;
6426;SDS011;3246;42.664;23.308;2023-01-29T07:32:12;21.17;;;14.77;;
6426;SDS011;3246;42.664;23.308;2023-01-29T07:34:39;19.50;;;14.80;;
6426;SDS011;3246;42.664;23.308;2023-01-29T07:37:07;14.10;;;9.93;;
6426;SDS011;3246;42.664;23.308;2023-01-29T07:39:33;15.17;;;9.13;;
6426;SDS011;3246;42.664;23.308;2023-01-29T07:42:00;11.80;;;9.33;;
6426;SDS011;3246;42.664;23.308;2023-01-29T07:44:26;12.90;;;8.87;;
6426;SDS011;3246;42.664;23.308;2023-01-29T07:46:53;10.67;;;9.07;;
6426;SDS011;3246;42.664;23.308;2023-01-29T07:49:19;12.10;;;10.10;;
6426;SDS011;3246;42.664;23.308;2023-01-29T07:51:46;13.57;;;10.70;;
6426;SDS011;3246;42.664;23.308;2023-01-29T07:54:14;15.17;;;11.40;;
6426;SDS011;3246;42.664;23.308;2023-01-29T07:56:40;19.90;;;11.87;;
6426;SDS011;3246;42.664;23.308;2023-01-29T07:59:07;15.83;;;12.23;;
6426;SDS011;3246;42.664;23.308;2023-01-29T08:01:33;17.20;;;13.23;;
6426;SDS011;3246;42.664;23.308;2023-01-29T08:03:59;15.30;;;11.10;;
6426;SDS011;3246;42.664;23.308;2023-01-29T08:06:26;17.97;;;12.87;;
6426;SDS011;3246;42.664;23.308;2023-01-29T08:08:52;14.47;;;11.47;;
6426;SDS011;3246;42.664;23.308;2023-01-29T08:11:21;11.97;;;10.27;;
6426;SDS011;3246;42.664;23.308;2023-01-29T08:13:47;15.43;;;11.57;;
6426;SDS011;3246;42.664;23.308;2023-01-29T08:16:14;17.43;;;11.23;;
6426;SDS011;3246;42.664;23.308;2023-01-29T08:18:40;13.97;;;11.40;;
6426;SDS011;3246;42.664;23.308;2023-01-29T08:21:10;16.10;;;12.10;;
6426;SDS011;3246;42.664;23.308;2023-01-29T08:23:36;15.20;;;11.10;;
6426;SDS011;3246;42.664;23.308;2023-01-29T08:26:03;14.30;;;11.23;;
6426;SDS011;3246;42.664;23.308;2023-01-29T08:28:31;15.17;;;10.77;;
6426;SDS011;3246;42.664;23.308;2023-01-29T08:30:57;15.80;;;11.63;;
6426;SDS011;3246;42.664;23.308;2023-01-29T08:33:24;17.00;;;13.53;;
6426;SDS011;3246;42.664;23.308;2023-01-29T08:35:53;10.63;;;9.13;;
6426;SDS011;3246;42.664;23.308;2023-01-29T08:38:19;17.50;;;12.63;;
6426;SDS011;3246;42.664;23.308;2023-01-29T08:40:46;13.60;;;11.33;;
6426;SDS011;3246;42.664;23.308;2023-01-29T08:43:12;11.37;;;9.50;;
6426;SDS011;3246;42.664;23.308;2023-01-29T08:45:41;12.30;;;11.03;;
6426;SDS011;3246;42.664;23.308;2023-01-29T08:48:08;16.23;;;12.50;;
6426;SDS011;3246;42.664;23.308;2023-01-29T08:50:35;14.80;;;12.93;;
6426;SDS011;3246;42.664;23.308;2023-01-29T08:53:02;16.87;;;14.00;;
6426;SDS011;3246;42.664;23.308;2023-01-29T08:55:29;14.10;;;10.10;;
6426;SDS011;3246;42.664;23.308;2023-01-29T08:57:55;17.77;;;13.27;;
6426;SDS011;3246;42.664;23.308;2023-01-29T09:00:22;16.00;;;13.20;;
6426;SDS011;3246;42.664;23.308;2023-01-29T09:02:50;17.57;;;12.27;;
6426;SDS011;3246;42.664;23.308;2023-01-29T09:05:16;15.07;;;10.47;;
6426;SDS011;3246;42.664;23.308;2023-01-29T09:07:43;11.87;;;7.53;;
6426;SDS011;3246;42.664;23.308;2023-01-29T09:10:10;13.60;;;8.83;;
6426;SDS011;3246;42.664;23.308;2023-01-29T09:12:37;18.63;;;12.57;;
6426;SDS011;3246;42.664;23.308;2023-01-29T09:15:04;16.60;;;12.13;;
6426;SDS011;3246;42.664;23.308;2023-01-29T09:17:30;14.40;;;11.17;;
6426;SDS011;3246;42.664;23.308;2023-01-29T09:19:58;17.23;;;12.90;;
6426;SDS011;3246;42.664;23.308;2023-01-29T09:22:25;17.97;;;11.27;;
6426;SDS011;3246;42.664;23.308;2023-01-29T09:24:51;17.03;;;12.93;;
6426;SDS011;3246;42.664;23.308;2023-01-29T09:27:18;12.90;;;10.20;;
6426;SDS011;3246;42.664;23.308;2023-01-29T09:29:44;9.73;;;7.57;;
6426;SDS011;3246;42.664;23.308;2023-01-29T09:32:11;16.27;;;11.30;;
6426;SDS011;3246;42.664;23.308;2023-01-29T09:34:37;14.43;;;10.70;;
6426;SDS011;3246;42.664;23.308;2023-01-29T09:37:05;14.03;;;11.63;;
6426;SDS011;3246;42.664;23.308;2023-01-29T09:39:31;9.70;;;7.57;;
6426;SDS011;3246;42.664;23.308;2023-01-29T09:41:59;15.10;;;10.90;;
6426;SDS011;3246;42.664;23.308;2023-01-29T09:44:32;19.33;;;11.80;;
6426;SDS011;3246;42.664;23.308;2023-01-29T09:47:01;14.40;;;11.00;;
6426;SDS011;3246;42.664;23.308;2023-01-29T09:49:31;15.47;;;10.70;;
6426;SDS011;3246;42.664;23.308;2023-01-29T09:52:01;21.43;;;14.30;;
6426;SDS011;3246;42.664;23.308;2023-01-29T09:54:29;21.03;;;12.33;;
6426;SDS011;3246;42.664;23.308;2023-01-29T09:56:58;18.97;;;14.33;;
6426;SDS011;3246;42.664;23.308;2023-01-29T09:59:26;18.40;;;12.17;;
6426;SDS011;3246;42.664;23.308;2023-01-29T10:01:58;18.37;;;13.93;;
6426;SDS011;3246;42.664;23.308;2023-01-29T10:07:24;19.50;;;13.67;;
6426;SDS011;3246;42.664;23.308;2023-01-29T10:10:01;20.03;;;14.43;;
6426;SDS011;3246;42.664;23.308;2023-01-29T10:12:32;16.73;;;12.97;;
6426;SDS011;3246;42.664;23.308;2023-01-29T10:15:01;16.83;;;12.70;;
6426;SDS011;3246;42.664;23.308;2023-01-29T10:17:34;13.93;;;10.80;;
6426;SDS011;3246;42.664;23.308;2023-01-29T10:22:55;18.77;;;13.10;;
6426;SDS011;3246;42.664;23.308;2023-01-29T10:25:26;16.00;;;11.30;;
6426;SDS011;3246;42.664;23.308;2023-01-29T10:27:53;20.37;;;15.40;;
6426;SDS011;3246;42.664;23.308;2023-01-29T10:30:27;25.53;;;16.83;;
6426;SDS011;3246;42.664;23.308;2023-01-29T10:32:55;17.50;;;12.00;;
6426;SDS011;3246;42.664;23.308;2023-01-29T10:35:23;21.63;;;13.93;;
6426;SDS011;3246;42.664;23.308;2023-01-29T10:37:53;25.03;;;15.67;;
6426;SDS011;3246;42.664;23.308;2023-01-29T10:40:20;22.37;;;16.37;;
6426;SDS011;3246;42.664;23.308;2023-01-29T10:42:49;19.63;;;13.07;;
6426;SDS011;3246;42.664;23.308;2023-01-29T10:45:19;20.63;;;13.97;;
6426;SDS011;3246;42.664;23.308;2023-01-29T10:48:00;23.03;;;15.50;;
6426;SDS011;3246;42.664;23.308;2023-01-29T10:50:39;24.30;;;14.90;;
6426;SDS011;3246;42.664;23.308;2023-01-29T10:53:24;26.40;;;16.47;;
6426;SDS011;3246;42.664;23.308;2023-01-29T10:55:55;20.33;;;12.30;;
6426;SDS011;3246;42.664;23.308;2023-01-29T10:58:26;16.37;;;12.60;;
6426;SDS011;3246;42.664;23.308;2023-01-29T11:00:55;22.27;;;14.27;;
6426;SDS011;3246;42.664;23.308;2023-01-29T11:03:22;21.67;;;13.80;;
6426;SDS011;3246;42.664;23.308;2023-01-29T11:05:50;20.47;;;12.67;;
6426;SDS011;3246;42.664;23.308;2023-01-29T11:08:18;20.00;;;13.43;;
6426;SDS011;3246;42.664;23.308;2023-01-29T11:10:49;22.80;;;14.83;;
6426;SDS011;3246;42.664;23.308;2023-01-29T11:13:19;21.17;;;11.83;;
6426;SDS011;3246;42.664;23.308;2023-01-29T11:15:49;24.90;;;15.97;;
6426;SDS011;3246;42.664;23.308;2023-01-29T11:18:17;24.20;;;15.77;;
6426;SDS011;3246;42.664;23.308;2023-01-29T11:20:44;22.53;;;13.57;;
6426;SDS011;3246;42.664;23.308;2023-01-29T11:23:22;25.10;;;14.90;;
6426;SDS011;3246;42.664;23.308;2023-01-29T11:25:50;15.90;;;10.97;;
6426;SDS011;3246;42.664;23.308;2023-01-29T11:28:24;22.97;;;14.90;;
6426;SDS011;3246;42.664;23.308;2023-01-29T11:31:01;26.73;;;16.83;;
6426;SDS011;3246;42.664;23.308;2023-01-29T11:33:27;23.87;;;16.37;;
6426;SDS011;3246;42.664;23.308;2023-01-29T11:35:54;26.53;;;16.20;;
6426;SDS011;3246;42.664;23.308;2023-01-29T11:38:22;25.67;;;16.23;;
6426;SDS011;3246;42.664;23.308;2023-01-29T11:40:49;24.60;;;16.37;;
6426;SDS011;3246;42.664;23.308;2023-01-29T11:43:19;22.40;;;14.27;;
6426;SDS011;3246;42.664;23.308;2023-01-29T11:45:47;23.87;;;14.33;;
6426;SDS011;3246;42.664;23.308;2023-01-29T11:48:15;21.47;;;13.97;;
6426;SDS011;3246;42.664;23.308;2023-01-29T11:50:43;20.33;;;14.07;;
6426;SDS011;3246;42.664;23.308;2023-01-29T11:53:33;23.87;;;15.37;;
6426;SDS011;3246;42.664;23.308;2023-01-29T11:56:00;16.63;;;12.70;;
6426;SDS011;3246;42.664;23.308;2023-01-29T11:58:28;18.07;;;11.60;;
6426;SDS011;3246;42.664;23.308;2023-01-29T12:00:55;18.80;;;12.67;;
6426;SDS011;3246;42.664;23.308;2023-01-29T12:03:26;21.10;;;11.23;;
6426;SDS011;3246;42.664;23.308;2023-01-29T12:05:55;10.37;;;7.80;;
6426;SDS011;3246;42.664;23.308;2023-01-29T12:08:23;17.40;;;10.67;;
6426;SDS011;3246;42.664;23.308;2023-01-29T12:10:50;19.40;;;13.47;;
6426;SDS011;3246;42.664;23.308;2023-01-29T12:13:20;21.27;;;14.77;;
6426;SDS011;3246;42.664;23.308;2023-01-29T12:15:50;22.80;;;14.17;;
6426;SDS011;3246;42.664;23.308;2023-01-29T12:18:31;20.77;;;13.60;;
6426;SDS011;3246;42.664;23.308;2023-01-29T12:21:01;22.17;;;14.87;;
6426;SDS011;3246;42.664;23.308;2023-01-29T12:23:30;24.20;;;16.20;;
6426;SDS011;3246;42.664;23.308;2023-01-29T12:25:59;23.20;;;15.07;;
6426;SDS011;3246;42.664;23.308;2023-01-29T12:28:34;22.30;;;15.07;;
6426;SDS011;3246;42.664;23.308;2023-01-29T12:31:07;21.17;;;13.53;;
6426;SDS011;3246;42.664;23.308;2023-01-29T12:33:38;20.30;;;13.37;;
6426;SDS011;3246;42.664;23.308;2023-01-29T12:36:08;18.77;;;13.07;;
6426;SDS011;3246;42.664;23.308;2023-01-29T12:38:38;18.23;;;12.63;;
6426;SDS011;3246;42.664;23.308;2023-01-29T12:41:06;21.60;;;14.43;;
6426;SDS011;3246;42.664;23.308;2023-01-29T12:43:34;26.40;;;16.10;;
6426;SDS011;3246;42.664;23.308;2023-01-29T12:46:03;20.20;;;13.60;;
6426;SDS011;3246;42.664;23.308;2023-01-29T12:48:31;23.90;;;14.00;;
6426;SDS011;3246;42.664;23.308;2023-01-29T12:51:02;15.57;;;11.23;;
6426;SDS011;3246;42.664;23.308;2023-01-29T12:53:31;15.93;;;11.17;;
6426;SDS011;3246;42.664;23.308;2023-01-29T12:55:59;16.73;;;13.30;;
6426;SDS011;3246;42.664;23.308;2023-01-29T12:58:28;15.13;;;10.83;;
6426;SDS011;3246;42.664;23.308;2023-01-29T13:00:56;18.70;;;13.33;;
6426;SDS011;3246;42.664;23.308;2023-01-29T13:03:25;18.17;;;11.03;;
6426;SDS011;3246;42.664;23.308;2023-01-29T13:05:52;15.47;;;10.77;;
6426;SDS011;3246;42.664;23.308;2023-01-29T13:08:22;19.13;;;12.63;;
6426;SDS011;3246;42.664;23.308;2023-01-29T13:10:51;21.07;;;13.17;;
6426;SDS011;3246;42.664;23.308;2023-01-29T13:13:21;20.67;;;14.77;;
6426;SDS011;3246;42.664;23.308;2023-01-29T13:15:50;20.17;;;13.70;;
6426;SDS011;3246;42.664;23.308;2023-01-29T13:18:25;18.47;;;13.50;;
6426;SDS011;3246;42.664;23.308;2023-01-29T13:20:56;21.17;;;14.00;;
6426;SDS011;3246;42.664;23.308;2023-01-29T13:23:27;18.23;;;12.63;;
6426;SDS011;3246;42.664;23.308;2023-01-29T13:25:57;21.43;;;13.37;;
6426;SDS011;3246;42.664;23.308;2023-01-29T13:28:24;14.67;;;9.70;;
6426;SDS011;3246;42.664;23.308;2023-01-29T13:33:33;16.10;;;11.97;;
6426;SDS011;3246;42.664;23.308;2023-01-29T13:35:59;18.73;;;13.33;;
6426;SDS011;3246;42.664;23.308;2023-01-29T13:38:28;19.30;;;13.47;;
6426;SDS011;3246;42.664;23.308;2023-01-29T13:40:57;16.23;;;12.30;;
6426;SDS011;3246;42.664;23.308;2023-01-29T13:43:26;14.57;;;10.63;;
6426;SDS011;3246;42.664;23.308;2023-01-29T13:45:52;12.20;;;10.27;;
6426;SDS011;3246;42.664;23.308;2023-01-29T13:48:20;16.23;;;11.63;;
6426;SDS011;3246;42.664;23.308;2023-01-29T13:50:49;15.07;;;11.00;;
6426;SDS011;3246;42.664;23.308;2023-01-29T13:53:20;13.37;;;7.80;;
6426;SDS011;3246;42.664;23.308;2023-01-29T13:55:49;13.63;;;10.10;;
6426;SDS011;3246;42.664;23.308;2023-01-29T13:58:16;16.30;;;10.80;;
6426;SDS011;3246;42.664;23.308;2023-01-29T14:09:02;17.03;;;9.23;;
6426;SDS011;3246;42.664;23.308;2023-01-29T14:11:34;17.83;;;12.30;;
6426;SDS011;3246;42.664;23.308;2023-01-29T14:14:01;17.13;;;11.20;;
6426;SDS011;3246;42.664;23.308;2023-01-29T14:16:34;16.90;;;12.33;;
6426;SDS011;3246;42.664;23.308;2023-01-29T14:19:01;17.83;;;12.20;;
6426;SDS011;3246;42.664;23.308;2023-01-29T14:21:28;23.23;;;12.23;;
6426;SDS011;3246;42.664;23.308;2023-01-29T14:23:56;13.70;;;10.77;;
6426;SDS011;3246;42.664;23.308;2023-01-29T14:26:27;12.43;;;9.90;;
6426;SDS011;3246;42.664;23.308;2023-01-29T14:29:00;22.67;;;13.70;;
6426;SDS011;3246;42.664;23.308;2023-01-29T14:31:28;23.43;;;12.70;;
6426;SDS011;3246;42.664;23.308;2023-01-29T14:33:58;23.03;;;14.73;;
6426;SDS011;3246;42.664;23.308;2023-01-29T14:36:25;19.53;;;13.30;;
6426;SDS011;3246;42.664;23.308;2023-01-29T14:38:52;23.17;;;14.90;;
6426;SDS011;3246;42.664;23.308;2023-01-29T14:41:21;22.53;;;15.57;;
6426;SDS011;3246;42.664;23.308;2023-01-29T14:43:49;28.83;;;15.63;;
6426;SDS011;3246;42.664;23.308;2023-01-29T14:49:02;21.63;;;15.90;;
6426;SDS011;3246;42.664;23.308;2023-01-29T14:51:31;23.67;;;15.60;;
6426;SDS011;3246;42.664;23.308;2023-01-29T14:54:00;27.27;;;15.93;;
6426;SDS011;3246;42.664;23.308;2023-01-29T14:56:29;20.93;;;11.87;;
6426;SDS011;3246;42.664;23.308;2023-01-29T14:59:01;30.13;;;16.23;;
6426;SDS011;3246;42.664;23.308;2023-01-29T15:01:30;31.13;;;17.67;;
6426;SDS011;3246;42.664;23.308;2023-01-29T15:04:00;30.87;;;18.10;;
6426;SDS011;3246;42.664;23.308;2023-01-29T15:06:30;23.63;;;16.47;;
6426;SDS011;3246;42.664;23.308;2023-01-29T15:09:02;21.33;;;14.10;;
6426;SDS011;3246;42.664;23.308;2023-01-29T15:11:32;16.43;;;11.83;;
6426;SDS011;3246;42.664;23.308;2023-01-29T15:14:15;19.83;;;12.77;;
6426;SDS011;3246;42.664;23.308;2023-01-29T15:16:50;23.47;;;13.63;;